Time;durP1;ratioP1;P1;durP2;ratioP2;P2;SDS_P1;SDS_P2;PMS_P1;PMS_P2;Temp;Humidity;BMP_temperature;BMP_pressure;BME280_temperature;BME280_humidity;BME280_pressure;Samples;Min_cycle;Max_cycle;Signal;HPM_P1;HPM_P2
2023/12/22 00:01:28;;;;;;;;;;;;;;;17.21;45.21;101072.41;4230442;28;19955;-68
2023/12/22 00:03:29;;;;;;;;;;;;;;;17.21;45.12;101069.72;4230475;28;19951;-67
2023/12/22 00:05:31;;;;;;;;;;;;;;;17.21;45.31;101083.03;4230527;28;20317;-68
2023/12/22 00:07:32;;;;;;;;;;;;;;;17.21;45.27;101086.53;4230691;28;20382;-67
2023/12/22 00:09:34;;;;;;;;;;;;;;;17.23;45.15;101078.47;4230601;28;19919;-68
2023/12/22 00:11:35;;;;;;;;;;;;;;;17.24;45.07;101073.06;4230538;28;20019;-68
2023/12/22 00:13:37;;;;;;;;;;;;;;;17.23;45.03;101068.69;4230578;28;20266;-68
2023/12/22 00:15:38;;;;;;;;;;;;;;;17.21;45.02;101064.41;4230327;28;20296;-67
2023/12/22 00:17:40;;;;;;;;;;;;;;;17.19;45.29;101071.63;4230473;28;19920;-68
2023/12/22 00:19:41;;;;;;;;;;;;;;;17.14;45.26;101066.56;4230732;28;20271;-68
2023/12/22 00:21:43;;;;;;;;;;;;;;;17.16;44.85;101058.53;4230478;28;19920;-68
2023/12/22 00:23:45;;;;;;;;;;;;;;;17.17;45.25;101062.88;4229085;28;19926;-68
2023/12/22 00:25:46;;;;;;;;;;;;;;;17.14;45.24;101049.78;4230302;28;19935;-67
2023/12/22 00:27:48;;;;;;;;;;;;;;;17.06;44.78;101060.81;4229322;28;19924;-68
2023/12/22 00:29:49;;;;;;;;;;;;;;;17.08;45.22;101067.78;4230176;28;19920;-60
2023/12/22 00:31:51;;;;;;;;;;;;;;;17.10;45.13;101062.38;4230519;28;19958;-67
2023/12/22 00:33:52;;;;;;;;;;;;;;;17.06;45.15;101056.38;4230510;28;19973;-67
2023/12/22 00:35:54;;;;;;;;;;;;;;;17.05;45.02;101057.31;4230455;28;19926;-67
2023/12/22 00:37:55;;;;;;;;;;;;;;;17.02;45.20;101057.53;4212327;28;19920;-68
2023/12/22 00:39:57;;;;;;;;;;;;;;;17.00;45.21;101062.06;4230309;28;20398;-68
2023/12/22 00:41:59;;;;;;;;;;;;;;;17.04;44.79;101057.41;4230386;28;19989;-67
2023/12/22 00:44:00;;;;;;;;;;;;;;;17.03;44.66;101050.38;4230413;28;19919;-67
2023/12/22 00:46:02;;;;;;;;;;;;;;;17.04;45.04;101041.47;4230053;28;19942;-67
2023/12/22 00:48:04;;;;;;;;;;;;;;;17.05;44.74;101037.88;4230316;28;20366;-67
2023/12/22 00:50:06;;;;;;;;;;;;;;;17.04;44.92;101029.03;4230342;28;19995;-68
2023/12/22 00:52:08;;;;;;;;;;;;;;;17.03;44.65;101037.09;4230336;28;19919;-68
2023/12/22 00:54:09;;;;;;;;;;;;;;;16.96;44.92;101047.22;4231739;28;19920;-68
2023/12/22 00:56:13;;;;;;;;;;;;;;;16.96;44.86;101047.22;4233443;28;19930;-67
2023/12/22 00:58:15;;;;;;;;;;;;;;;16.99;44.85;101043.56;4233276;27;19965;-68
2023/12/22 01:00:17;;;;;;;;;;;;;;;17.00;44.80;101046.09;4232846;27;19924;-67
2023/12/22 01:02:18;;;;;;;;;;;;;;;16.97;44.76;101042.78;4233052;28;19933;-67
2023/12/22 01:04:20;;;;;;;;;;;;;;;16.98;44.69;101052.47;4233139;28;20260;-68
2023/12/22 01:06:21;;;;;;;;;;;;;;;17.00;44.68;101051.44;4233160;28;19926;-67
2023/12/22 01:08:28;;;;;;;;;;;;;;;16.99;44.57;101041.75;4233319;28;20287;-67
2023/12/22 01:10:29;;;;;;;;;;;;;;;16.97;44.53;101051.59;4233142;28;20266;-68
2023/12/22 01:12:31;;;;;;;;;;;;;;;17.00;44.37;101064.72;4233148;28;19920;-67
2023/12/22 01:14:33;;;;;;;;;;;;;;;16.94;44.16;101081.00;4232747;27;19959;-67
2023/12/22 01:16:34;;;;;;;;;;;;;;;16.92;44.68;101091.69;4233064;28;19919;-68
2023/12/22 01:18:36;;;;;;;;;;;;;;;16.93;44.31;101079.28;4233099;27;20379;-68
2023/12/22 01:20:37;;;;;;;;;;;;;;;16.93;44.47;101068.66;4232911;28;19950;-67
2023/12/22 01:22:39;;;;;;;;;;;;;;;16.95;44.48;101050.84;4232783;28;19973;-67
2023/12/22 01:24:43;;;;;;;;;;;;;;;16.97;44.38;101056.06;4232738;28;19920;-68
2023/12/22 01:26:44;;;;;;;;;;;;;;;16.95;43.99;101061.47;4232984;28;19955;-67
2023/12/22 01:28:46;;;;;;;;;;;;;;;16.94;44.48;101073.03;4232334;28;19976;-67
2023/12/22 01:30:48;;;;;;;;;;;;;;;16.95;44.37;101063.25;4232800;28;19919;-68
2023/12/22 01:32:49;;;;;;;;;;;;;;;16.95;44.09;101072.09;4232761;28;20457;-68
2023/12/22 01:34:51;;;;;;;;;;;;;;;16.95;44.42;101068.56;4232867;28;19927;-68
2023/12/22 01:36:52;;;;;;;;;;;;;;;16.95;44.46;101076.53;4232887;28;19923;-68
2023/12/22 01:38:54;;;;;;;;;;;;;;;16.88;44.41;101076.00;4232810;28;19920;-68
2023/12/22 01:40:55;;;;;;;;;;;;;;;16.90;44.52;101076.75;4232597;28;19919;-68
2023/12/22 01:42:57;;;;;;;;;;;;;;;16.88;44.40;101070.69;4232308;28;19927;-68
2023/12/22 01:44:58;;;;;;;;;;;;;;;16.86;44.60;101064.59;4232685;28;20297;-67
2023/12/22 01:47:00;;;;;;;;;;;;;;;16.86;44.69;101046.84;4231438;28;20133;-67
2023/12/22 01:49:02;;;;;;;;;;;;;;;16.83;44.38;101041.72;4232695;28;20010;-67
2023/12/22 01:51:04;;;;;;;;;;;;;;;16.83;44.43;101040.84;4232655;28;19919;-66
2023/12/22 01:53:06;;;;;;;;;;;;;;;16.81;44.40;101034.78;4232467;28;19919;-67
2023/12/22 01:55:10;;;;;;;;;;;;;;;16.83;44.47;101048.81;4232679;28;19920;-67
2023/12/22 01:57:13;;;;;;;;;;;;;;;16.78;44.66;101041.16;4232179;28;19919;-67
2023/12/22 01:59:15;;;;;;;;;;;;;;;16.80;44.69;101052.50;4232846;28;19920;-67
2023/12/22 02:01:17;;;;;;;;;;;;;;;16.75;44.99;101068.69;4232207;28;19947;-66
2023/12/22 02:03:18;;;;;;;;;;;;;;;16.75;45.07;101068.69;4232476;28;19919;-67
2023/12/22 02:05:20;;;;;;;;;;;;;;;16.75;44.65;101087.28;4231483;28;19924;-67
2023/12/22 02:07:22;;;;;;;;;;;;;;;16.76;45.07;101086.34;4231271;28;19928;-67
2023/12/22 02:09:23;;;;;;;;;;;;;;;16.80;44.95;101088.84;4232422;28;19930;-67
2023/12/22 02:11:25;;;;;;;;;;;;;;;16.81;45.01;101091.41;4232041;28;20353;-66
2023/12/22 02:13:28;;;;;;;;;;;;;;;16.81;45.06;101087.91;4230955;28;20424;-67
2023/12/22 02:15:30;;;;;;;;;;;;;;;16.81;44.98;101095.88;4232202;28;19943;-67
2023/12/22 02:17:50;;;;;;;;;;;;;;;16.81;45.01;101098.53;4231888;28;20018;-67
2023/12/22 02:19:53;;;;;;;;;;;;;;;16.84;44.81;101093.91;4232076;28;20795;-67
2023/12/22 02:22:04;;;;;;;;;;;;;;;16.84;45.04;101101.00;4231951;28;19973;-67
2023/12/22 02:24:10;;;;;;;;;;;;;;;16.81;45.25;101114.47;4231831;28;19951;-68
2023/12/22 02:26:32;;;;;;;;;;;;;;;16.81;45.10;101110.00;4231610;28;20436;-68
2023/12/22 02:28:35;;;;;;;;;;;;;;;16.81;45.33;101115.31;4231818;28;20466;-67
2023/12/22 02:30:52;;;;;;;;;;;;;;;16.79;45.29;101113.69;4231955;28;20447;-67
2023/12/22 02:33:00;;;;;;;;;;;;;;;16.79;45.32;101113.69;4231976;28;19920;-67
2023/12/22 02:35:04;;;;;;;;;;;;;;;16.67;45.29;101099.28;4231918;28;19919;-68
2023/12/22 02:37:08;;;;;;;;;;;;;;;16.75;45.41;101102.38;4231705;28;19923;-68
2023/12/22 02:39:10;;;;;;;;;;;;;;;16.76;45.40;101110.25;4231757;28;19919;-69
2023/12/22 02:41:12;;;;;;;;;;;;;;;16.76;45.33;101099.63;4231492;28;19966;-69
2023/12/22 02:43:13;;;;;;;;;;;;;;;16.73;45.50;101109.56;4230429;28;19931;-68
2023/12/22 02:45:16;;;;;;;;;;;;;;;16.72;45.62;101108.72;4231713;28;19920;-67
2023/12/22 02:47:18;;;;;;;;;;;;;;;16.71;45.48;101112.31;4231569;28;19974;-68
2023/12/22 02:49:19;;;;;;;;;;;;;;;16.71;45.38;101117.63;4230527;28;19920;-67
2023/12/22 02:51:21;;;;;;;;;;;;;;;16.71;45.50;101112.31;4231423;28;19973;-67
2023/12/22 02:53:23;;;;;;;;;;;;;;;16.72;45.47;101108.72;4231595;28;20326;-68
2023/12/22 02:55:24;;;;;;;;;;;;;;;16.68;45.30;101112.47;4231175;28;20015;-67
2023/12/22 02:57:26;;;;;;;;;;;;;;;16.68;45.54;101112.47;4231468;28;19926;-68
2023/12/22 02:59:28;;;;;;;;;;;;;;;16.71;45.58;101107.00;4231588;28;19971;-68
2023/12/22 03:01:30;;;;;;;;;;;;;;;16.71;45.28;101101.69;4231424;28;19920;-67
2023/12/22 03:03:31;;;;;;;;;;;;;;;16.70;45.43;101105.28;4231464;28;19926;-67
2023/12/22 03:05:33;;;;;;;;;;;;;;;16.70;45.52;101094.66;4231362;28;19927;-67
2023/12/22 03:07:35;;;;;;;;;;;;;;;16.71;45.57;101093.72;4231388;28;20015;-67
2023/12/22 03:09:36;;;;;;;;;;;;;;;16.72;45.06;101089.25;4231063;28;19920;-68
2023/12/22 03:11:39;;;;;;;;;;;;;;;16.68;45.51;101085.91;4231449;28;20014;-67
2023/12/22 03:13:41;;;;;;;;;;;;;;;16.66;45.55;101087.81;4231336;28;19926;-68
2023/12/22 03:15:43;;;;;;;;;;;;;;;16.67;45.55;101086.91;4231311;28;19927;-68
2023/12/22 03:17:45;;;;;;;;;;;;;;;16.68;45.29;101085.91;4231062;28;19924;-68
2023/12/22 03:19:46;;;;;;;;;;;;;;;16.70;45.16;101080.53;4231161;28;20022;-67
2023/12/22 03:21:48;;;;;;;;;;;;;;;16.68;45.33;101070.00;4231345;27;19927;-68
2023/12/22 03:23:49;;;;;;;;;;;;;;;16.72;45.40;101068.03;4230750;28;20404;-67
2023/12/22 03:25:51;;;;;;;;;;;;;;;16.64;45.52;101079.09;4230854;28;19920;-68
2023/12/22 03:27:52;;;;;;;;;;;;;;;16.62;45.64;101073.00;4230977;28;19920;-68
2023/12/22 03:29:54;;;;;;;;;;;;;;;16.64;45.38;101084.38;4229784;28;19919;-68
2023/12/22 03:31:56;;;;;;;;;;;;;;;16.64;45.65;101075.59;4230936;28;20036;-68
2023/12/22 03:33:57;;;;;;;;;;;;;;;16.61;45.57;101087.22;4231208;28;19950;-68
2023/12/22 03:35:59;;;;;;;;;;;;;;;16.61;45.56;101082.75;4230880;28;20389;-67
2023/12/22 03:38:00;;;;;;;;;;;;;;;16.64;45.22;101088.84;4230992;28;19920;-68
2023/12/22 03:40:02;;;;;;;;;;;;;;;16.63;45.46;101087.13;4230549;28;20002;-68
2023/12/22 03:42:04;;;;;;;;;;;;;;;16.64;45.40;101071.13;4230723;28;20018;-68
2023/12/22 03:44:05;;;;;;;;;;;;;;;16.64;45.46;101088.84;4230858;28;20309;-68
2023/12/22 03:46:07;;;;;;;;;;;;;;;16.61;45.34;101081.91;4230928;28;19965;-67
2023/12/22 03:48:09;;;;;;;;;;;;;;;16.59;45.54;101079.31;4230763;28;19924;-68
2023/12/22 03:50:10;;;;;;;;;;;;;;;16.58;45.71;101079.41;4230925;28;19926;-67
2023/12/22 03:52:17;;;;;;;;;;;;;;;16.57;45.50;101085.66;4230641;28;19919;-67
2023/12/22 03:54:18;;;;;;;;;;;;;;;16.59;45.43;101075.84;4229220;28;20352;-68
2023/12/22 03:56:20;;;;;;;;;;;;;;;16.59;45.44;101086.44;4230860;28;20006;-67
2023/12/22 03:58:22;;;;;;;;;;;;;;;16.60;45.70;101072.25;4230598;28;19920;-67
2023/12/22 04:00:24;;;;;;;;;;;;;;;16.58;45.67;101084.72;4230553;28;19946;-67
2023/12/22 04:02:25;;;;;;;;;;;;;;;16.60;45.57;101078.38;4230891;28;19926;-69
2023/12/22 04:04:27;;;;;;;;;;;;;;;16.59;45.46;101081.97;4230656;28;19920;-67
2023/12/22 04:06:29;;;;;;;;;;;;;;;16.57;45.67;101085.66;4230363;28;19979;-67
2023/12/22 04:08:31;;;;;;;;;;;;;;;16.56;45.45;101097.22;4230470;28;20010;-68
2023/12/22 04:10:32;;;;;;;;;;;;;;;16.58;45.76;101098.00;4230690;28;19920;-68
2023/12/22 04:12:34;;;;;;;;;;;;;;;16.59;45.74;101097.91;4230725;28;19926;-67
2023/12/22 04:14:35;;;;;;;;;;;;;;;16.60;45.81;101094.31;4230610;28;19920;-67
2023/12/22 04:16:40;;;;;;;;;;;;;;;16.61;45.78;101090.72;4230652;28;20283;-67
2023/12/22 04:18:42;;;;;;;;;;;;;;;16.61;45.62;101098.69;4230740;28;19919;-67
2023/12/22 04:20:44;;;;;;;;;;;;;;;16.59;45.73;101086.44;4229298;28;19963;-67
2023/12/22 04:22:45;;;;;;;;;;;;;;;16.52;45.95;101090.38;4230180;28;20002;-67
2023/12/22 04:24:47;;;;;;;;;;;;;;;16.47;46.23;101098.59;4230267;28;20348;-67
2023/12/22 04:26:48;;;;;;;;;;;;;;;16.39;46.11;101104.31;4230447;28;19919;-67
2023/12/22 04:28:50;;;;;;;;;;;;;;;16.43;46.39;101105.88;4231963;28;19943;-67
2023/12/22 04:30:51;;;;;;;;;;;;;;;16.41;46.83;101099.78;4233847;27;19985;-67
2023/12/22 04:32:53;;;;;;;;;;;;;;;16.20;47.21;101075.25;4234066;28;20383;-67
2023/12/22 04:34:55;;;;;;;;;;;;;;;16.40;46.99;101098.09;4233955;28;20294;-67
2023/12/22 04:36:57;;;;;;;;;;;;;;;16.39;47.17;101100.78;4233366;28;19943;-67
2023/12/22 04:38:58;;;;;;;;;;;;;;;16.40;47.48;101097.22;4234123;28;19931;-67
2023/12/22 04:41:00;;;;;;;;;;;;;;;16.39;47.76;101106.09;4233752;28;19919;-67
2023/12/22 04:43:01;;;;;;;;;;;;;;;16.41;47.76;101105.06;4233789;28;20297;-67
2023/12/22 04:45:03;;;;;;;;;;;;;;;16.41;47.96;101110.38;4233467;28;20385;-67
2023/12/22 04:47:05;;;;;;;;;;;;;;;16.38;48.21;101104.38;4233640;28;19926;-67
2023/12/22 04:49:06;;;;;;;;;;;;;;;16.39;48.28;101103.44;4233680;28;19919;-67
2023/12/22 04:51:12;;;;;;;;;;;;;;;16.38;48.49;101094.66;4231927;28;20015;-67
2023/12/22 04:53:14;;;;;;;;;;;;;;;16.38;48.71;101091.13;4233531;28;19920;-67
2023/12/22 04:55:16;;;;;;;;;;;;;;;16.39;48.17;101091.06;4233591;28;19919;-67
2023/12/22 04:57:18;;;;;;;;;;;;;;;16.41;48.69;101083.84;4233589;28;19919;-67
2023/12/22 04:59:19;;;;;;;;;;;;;;;16.42;48.38;101077.59;4233413;28;19920;-67
2023/12/22 05:01:21;;;;;;;;;;;;;;;16.42;48.56;101080.25;4233251;28;19920;-66
2023/12/22 05:03:22;;;;;;;;;;;;;;;16.42;48.35;101082.06;4233353;28;19919;-67
2023/12/22 05:05:24;;;;;;;;;;;;;;;16.44;48.67;101082.84;4233043;28;19931;-67
2023/12/22 05:07:26;;;;;;;;;;;;;;;16.43;48.60;101091.75;4233148;27;20018;-66
2023/12/22 05:09:28;;;;;;;;;;;;;;;16.42;48.67;101093.53;4233231;28;19919;-66
2023/12/22 05:11:30;;;;;;;;;;;;;;;16.43;48.51;101097.91;4233228;28;20526;-66
2023/12/22 05:13:31;;;;;;;;;;;;;;;16.45;48.56;101090.72;4231971;28;19969;-66
2023/12/22 05:15:33;;;;;;;;;;;;;;;16.45;48.70;101090.72;4233205;27;20341;-67
2023/12/22 05:17:34;;;;;;;;;;;;;;;16.44;48.73;101102.28;4232960;28;19973;-67
2023/12/22 05:19:36;;;;;;;;;;;;;;;16.41;48.60;101101.59;4233022;28;19926;-66
2023/12/22 05:21:37;;;;;;;;;;;;;;;16.42;48.90;101100.66;4232857;28;19920;-67
2023/12/22 05:23:44;;;;;;;;;;;;;;;16.38;48.99;101107.03;4233038;28;19920;-67
2023/12/22 05:25:45;;;;;;;;;;;;;;;16.40;48.74;101102.53;4232496;28;20275;-67
2023/12/22 05:27:47;;;;;;;;;;;;;;;16.33;49.02;101096.69;4232876;28;19926;-67
2023/12/22 05:29:49;;;;;;;;;;;;;;;16.32;49.16;101100.28;4233030;28;20283;-67
2023/12/22 05:31:50;;;;;;;;;;;;;;;16.34;49.28;101097.53;4232662;27;19920;-67
2023/12/22 05:33:52;;;;;;;;;;;;;;;16.32;49.08;101094.97;4232389;28;19920;-67
2023/12/22 05:35:58;;;;;;;;;;;;;;;16.34;48.95;101087.78;4231368;28;19959;-67
2023/12/22 05:38:05;;;;;;;;;;;;;;;16.36;49.12;101085.06;4232567;28;19931;-67
2023/12/22 05:40:12;;;;;;;;;;;;;;;16.38;49.43;101088.47;4231382;28;20006;-67
2023/12/22 05:42:13;;;;;;;;;;;;;;;16.39;48.91;101088.41;4232462;28;19924;-67
2023/12/22 05:44:15;;;;;;;;;;;;;;;16.40;48.94;101091.91;4232675;28;19920;-67
2023/12/22 05:46:17;;;;;;;;;;;;;;;16.38;49.08;101094.66;4232532;28;20423;-67
2023/12/22 05:48:21;;;;;;;;;;;;;;;16.39;49.02;101092.84;4232662;28;19928;-68
2023/12/22 05:50:28;;;;;;;;;;;;;;;16.39;48.97;101084.88;4232269;27;20006;-67
2023/12/22 05:52:29;;;;;;;;;;;;;;;16.36;48.99;101079.75;4231147;28;19920;-67
2023/12/22 05:54:31;;;;;;;;;;;;;;;16.35;49.27;101083.34;4232462;28;20301;-66
2023/12/22 05:56:33;;;;;;;;;;;;;;;16.34;49.33;101086.94;4232600;28;19920;-66
2023/12/22 05:58:35;;;;;;;;;;;;;;;16.34;49.27;101086.94;4232461;28;19932;-66
2023/12/22 06:00:41;;;;;;;;;;;;;;;16.35;49.13;101083.34;4232501;27;19920;-66
2023/12/22 06:02:48;;;;;;;;;;;;;;;16.33;49.37;101093.16;4232615;28;20354;-68
2023/12/22 06:04:49;;;;;;;;;;;;;;;16.32;48.95;101092.31;4231826;28;19992;-67
2023/12/22 06:06:51;;;;;;;;;;;;;;;16.34;49.14;101089.56;4232372;28;19975;-67
2023/12/22 06:08:52;;;;;;;;;;;;;;;16.33;49.13;101087.84;4232447;28;19920;-68
2023/12/22 06:10:54;;;;;;;;;;;;;;;16.33;49.12;101088.72;4232172;28;19926;-67
2023/12/22 06:13:03;;;;;;;;;;;;;;;16.35;49.34;101092.13;4232148;27;20018;-67
2023/12/22 06:15:05;;;;;;;;;;;;;;;16.37;49.01;101094.75;4232210;28;19923;-68
2023/12/22 06:17:06;;;;;;;;;;;;;;;16.33;48.93;101093.16;4232202;28;19927;-67
2023/12/22 06:19:09;;;;;;;;;;;;;;;16.32;49.09;101094.09;4231697;28;19988;-68
2023/12/22 06:21:11;;;;;;;;;;;;;;;16.33;49.21;101101.13;4231910;28;19920;-68
2023/12/22 06:23:13;;;;;;;;;;;;;;;16.29;49.31;101096.00;4232040;28;19920;-68
2023/12/22 06:25:19;;;;;;;;;;;;;;;16.30;49.24;101107.47;4230567;28;19920;-68
2023/12/22 06:27:21;;;;;;;;;;;;;;;16.27;49.11;101111.16;4231975;28;20306;-67
2023/12/22 06:29:27;;;;;;;;;;;;;;;16.28;49.60;101104.03;4232232;28;19972;-68
2023/12/22 06:31:32;;;;;;;;;;;;;;;16.27;49.51;101102.31;4231907;28;19962;-67
2023/12/22 06:33:33;;;;;;;;;;;;;;;16.28;49.24;101106.69;4231451;27;19924;-67
2023/12/22 06:35:35;;;;;;;;;;;;;;;16.29;49.38;101106.63;4231939;28;19950;-68
2023/12/22 06:37:36;;;;;;;;;;;;;;;16.29;49.62;101100.44;4231781;28;20022;-68
2023/12/22 06:39:38;;;;;;;;;;;;;;;16.27;49.52;101100.53;4231764;28;19920;-67
2023/12/22 06:41:41;;;;;;;;;;;;;;;16.25;49.35;101094.44;4231981;28;19963;-68
2023/12/22 06:43:42;;;;;;;;;;;;;;;16.26;49.66;101096.16;4231630;28;19920;-68
2023/12/22 06:45:44;;;;;;;;;;;;;;;16.28;49.57;101096.06;4231418;28;19967;-67
2023/12/22 06:47:45;;;;;;;;;;;;;;;16.27;49.60;101089.91;4231164;28;20303;-68
2023/12/22 06:49:47;;;;;;;;;;;;;;;16.27;49.61;101089.03;4231695;28;20378;-68
2023/12/22 06:51:49;;;;;;;;;;;;;;;16.27;49.30;101084.59;4230977;28;19924;-67
2023/12/22 06:53:51;;;;;;;;;;;;;;;16.26;49.45;101084.69;4231716;28;19951;-68
2023/12/22 06:55:52;;;;;;;;;;;;;;;16.25;49.61;101086.47;4231510;28;19942;-68
2023/12/22 06:57:54;;;;;;;;;;;;;;;16.27;49.66;101084.59;4231420;28;19920;-67
2023/12/22 06:59:56;;;;;;;;;;;;;;;16.27;49.59;101087.25;4231252;28;19954;-68
2023/12/22 07:02:02;;;;;;;;;;;;;;;16.17;49.73;101071.91;4230831;28;20019;-68
2023/12/22 07:04:18;;;;;;;;;;;;;;;16.20;49.72;101080.56;4231219;28;19920;-67
2023/12/22 07:06:23;;;;;;;;;;;;;;;16.18;49.81;101084.25;4231251;28;19924;-68
2023/12/22 07:08:25;;;;;;;;;;;;;;;16.20;49.86;101082.38;4231309;28;20413;-68
2023/12/22 07:10:26;;;;;;;;;;;;;;;16.23;50.06;101076.88;4231159;28;19927;-68
2023/12/22 07:12:33;;;;;;;;;;;;;;;16.18;50.04;101093.03;4231221;28;20243;-67
2023/12/22 07:14:39;;;;;;;;;;;;;;;16.13;50.03;101082.66;4231125;28;20030;-68
2023/12/22 07:16:46;;;;;;;;;;;;;;;16.16;50.37;101092.28;4230787;28;19927;-68
2023/12/22 07:18:47;;;;;;;;;;;;;;;16.12;50.30;101096.91;4231136;28;19946;-68
2023/12/22 07:20:49;;;;;;;;;;;;;;;16.13;50.30;101106.56;4231082;28;20317;-67
2023/12/22 07:22:50;;;;;;;;;;;;;;;16.16;50.20;101110.00;4231127;28;20366;-67
2023/12/22 07:24:52;;;;;;;;;;;;;;;16.18;50.27;101110.78;4230900;28;20034;-67
2023/12/22 07:26:59;;;;;;;;;;;;;;;16.15;50.30;101103.84;4230951;28;19947;-67
2023/12/22 07:29:05;;;;;;;;;;;;;;;16.18;50.22;101118.75;4230976;28;19926;-67
2023/12/22 07:31:12;;;;;;;;;;;;;;;16.17;50.37;101109.91;4230493;28;19919;-66
2023/12/22 07:33:15;;;;;;;;;;;;;;;16.17;50.56;101107.25;4230928;28;19919;-66
2023/12/22 07:35:16;;;;;;;;;;;;;;;16.13;50.46;101101.25;4230975;28;20454;-66
2023/12/22 07:37:19;;;;;;;;;;;;;;;16.12;50.30;101101.34;4230971;28;20409;-66
2023/12/22 07:39:25;;;;;;;;;;;;;;;16.14;50.58;101104.78;4230902;28;19926;-69
2023/12/22 07:41:27;;;;;;;;;;;;;;;16.17;50.53;101106.41;4230839;28;19973;-68
2023/12/22 07:43:29;;;;;;;;;;;;;;;16.17;50.49;101117.88;4230668;28;19919;-66
2023/12/22 07:45:31;;;;;;;;;;;;;;;16.17;50.33;101115.22;4230641;28;19945;-67
2023/12/22 07:47:33;;;;;;;;;;;;;;;16.19;50.41;101125.75;4230877;28;19972;-67
2023/12/22 07:49:39;;;;;;;;;;;;;;;16.19;50.22;101120.47;4230878;28;20393;-67
2023/12/22 07:51:41;;;;;;;;;;;;;;;16.15;50.39;101127.72;4230680;28;20033;-66
2023/12/22 07:53:44;;;;;;;;;;;;;;;16.16;50.02;101116.19;4230964;28;19920;-67
2023/12/22 07:55:46;;;;;;;;;;;;;;;16.15;50.62;101122.41;4230569;28;19959;-66
2023/12/22 07:57:48;;;;;;;;;;;;;;;16.16;50.24;101117.94;4230730;28;20348;-66
2023/12/22 07:59:50;;;;;;;;;;;;;;;16.17;50.37;101130.28;4230167;28;19924;-67
2023/12/22 08:01:52;;;;;;;;;;;;;;;16.18;50.35;101132.84;4230622;28;20302;-66
2023/12/22 08:03:53;;;;;;;;;;;;;;;16.18;50.40;101129.34;4232255;28;19962;-66
2023/12/22 08:05:55;;;;;;;;;;;;;;;16.18;50.49;101132.00;4234321;28;19921;-66
2023/12/22 08:07:57;;;;;;;;;;;;;;;16.15;50.56;101137.47;4233984;28;20408;-66
2023/12/22 08:09:59;;;;;;;;;;;;;;;16.10;50.76;101138.56;4234265;28;20010;-66
2023/12/22 08:12:00;;;;;;;;;;;;;;;16.08;50.75;101147.56;4234170;28;20014;-66
2023/12/22 08:14:04;;;;;;;;;;;;;;;16.05;50.55;101137.97;4233600;28;19920;-66
2023/12/22 08:16:05;;;;;;;;;;;;;;;16.08;50.82;101145.75;4234060;28;20019;-66
2023/12/22 08:18:07;;;;;;;;;;;;;;;16.10;50.61;101148.31;4233968;28;20352;-66
2023/12/22 08:20:10;;;;;;;;;;;;;;;16.10;50.87;101151.84;4233805;28;19919;-66
2023/12/22 08:22:22;;;;;;;;;;;;;;;16.06;50.70;101147.59;4234127;28;19947;-66
2023/12/22 08:24:28;;;;;;;;;;;;;;;16.10;50.88;101150.97;4233681;28;19919;-67
2023/12/22 08:26:30;;;;;;;;;;;;;;;16.09;50.94;101151.94;4233173;28;19923;-67
2023/12/22 08:28:32;;;;;;;;;;;;;;;16.05;51.05;101150.34;4232885;28;19923;-68
2023/12/22 08:30:34;;;;;;;;;;;;;;;16.02;52.13;101158.47;4233878;28;20309;-67
2023/12/22 08:32:35;;;;;;;;;;;;;;;16.06;51.75;101155.56;4233716;28;19934;-67
2023/12/22 08:34:37;;;;;;;;;;;;;;;16.11;51.78;101153.56;4233906;28;19919;-65
2023/12/22 08:36:38;;;;;;;;;;;;;;;16.17;51.59;101147.06;4233846;28;19920;-65
2023/12/22 08:38:40;;;;;;;;;;;;;;;16.19;51.43;101152.31;4233826;28;20294;-65
2023/12/22 08:40:43;;;;;;;;;;;;;;;16.22;51.09;101150.34;4233695;28;19926;-66
2023/12/22 08:42:44;;;;;;;;;;;;;;;16.23;51.05;101153.84;4233735;28;19966;-65
2023/12/22 08:44:46;;;;;;;;;;;;;;;16.25;50.84;101154.63;4232007;28;19920;-65
2023/12/22 08:46:47;;;;;;;;;;;;;;;16.27;50.75;101147.44;4233302;28;20293;-65
2023/12/22 08:48:49;;;;;;;;;;;;;;;16.28;50.41;101155.34;4233565;28;19923;-66
2023/12/22 08:50:51;;;;;;;;;;;;;;;16.29;50.31;101157.06;4233649;28;19919;-65
2023/12/22 08:52:52;;;;;;;;;;;;;;;16.29;50.38;101159.72;4233316;28;19927;-65
2023/12/22 08:54:54;;;;;;;;;;;;;;;16.31;50.37;101169.34;4233505;28;19919;-66
2023/12/22 08:56:56;;;;;;;;;;;;;;;16.31;49.85;101172.00;4233315;27;19923;-65
2023/12/22 08:59:02;;;;;;;;;;;;;;;16.31;50.12;101172.88;4233093;28;19920;-66
2023/12/22 09:01:04;;;;;;;;;;;;;;;16.32;49.74;101171.06;4233247;28;20010;-66
2023/12/22 09:03:05;;;;;;;;;;;;;;;16.33;49.62;101181.63;4233527;28;20018;-66
2023/12/22 09:05:07;;;;;;;;;;;;;;;16.33;49.91;101173.69;4233123;28;19969;-64
2023/12/22 09:07:10;;;;;;;;;;;;;;;16.33;49.82;101176.31;4233154;28;19923;-66
2023/12/22 09:09:11;;;;;;;;;;;;;;;16.35;49.79;101179.75;4233335;28;19919;-66
2023/12/22 09:11:14;;;;;;;;;;;;;;;16.36;49.72;101183.28;4232963;28;19972;-65
2023/12/22 09:13:16;;;;;;;;;;;;;;;16.36;49.61;101183.28;4231752;28;19951;-65
2023/12/22 09:15:17;;;;;;;;;;;;;;;16.36;49.51;101191.22;4232839;28;20018;-66
2023/12/22 09:17:19;;;;;;;;;;;;;;;16.36;49.24;101201.84;4233196;28;20379;-66
2023/12/22 09:19:21;;;;;;;;;;;;;;;16.35;49.45;101186.84;4232906;28;19935;-66
2023/12/22 09:21:23;;;;;;;;;;;;;;;16.35;49.35;101190.34;4232963;28;20014;-66
2023/12/22 09:23:25;;;;;;;;;;;;;;;16.37;49.41;101182.34;4233052;28;19959;-65
2023/12/22 09:25:27;;;;;;;;;;;;;;;16.35;49.59;101169.13;4232788;28;19923;-66
2023/12/22 09:27:30;;;;;;;;;;;;;;;16.35;49.68;101162.97;4232533;28;19926;-66
2023/12/22 09:29:33;;;;;;;;;;;;;;;16.36;49.45;101164.69;4232786;28;19919;-66
2023/12/22 09:31:35;;;;;;;;;;;;;;;16.38;49.26;101174.28;4232995;28;19974;-66
2023/12/22 09:33:37;;;;;;;;;;;;;;;16.38;49.05;101176.94;4232830;28;19927;-66
2023/12/22 09:35:42;;;;;;;;;;;;;;;16.39;49.11;101172.47;4232985;27;20299;-66
2023/12/22 09:37:43;;;;;;;;;;;;;;;16.40;49.19;101183.03;4232588;28;20052;-67
2023/12/22 09:39:45;;;;;;;;;;;;;;;16.40;48.91;101183.03;4231375;28;19920;-66
2023/12/22 09:41:50;;;;;;;;;;;;;;;16.40;48.95;101188.34;4232393;28;19926;-67
2023/12/22 09:43:52;;;;;;;;;;;;;;;16.38;49.18;101187.56;4232712;28;19919;-66
2023/12/22 09:45:54;;;;;;;;;;;;;;;16.39;49.01;101197.25;4232697;28;19924;-66
2023/12/22 09:47:56;;;;;;;;;;;;;;;16.40;49.12;101196.31;4232543;28;20015;-66
2023/12/22 09:49:58;;;;;;;;;;;;;;;16.41;48.66;101203.31;4232690;28;19926;-66
2023/12/22 09:52:02;;;;;;;;;;;;;;;16.42;49.03;101198.88;4232603;28;20351;-67
2023/12/22 09:54:04;;;;;;;;;;;;;;;16.42;48.93;101188.25;4232239;28;19923;-66
2023/12/22 09:56:06;;;;;;;;;;;;;;;16.42;48.83;101191.75;4231970;28;19920;-66
2023/12/22 09:58:09;;;;;;;;;;;;;;;16.43;48.99;101188.16;4232540;28;19923;-66
2023/12/22 10:00:12;;;;;;;;;;;;;;;16.42;48.95;101180.28;4232489;28;20342;-66
2023/12/22 10:02:14;;;;;;;;;;;;;;;16.43;48.85;101184.66;4232414;28;20015;-66
2023/12/22 10:04:15;;;;;;;;;;;;;;;16.41;49.13;101189.19;4232287;28;19926;-66
2023/12/22 10:06:17;;;;;;;;;;;;;;;16.42;49.03;101177.63;4232221;28;19919;-66
2023/12/22 10:08:20;;;;;;;;;;;;;;;16.43;48.82;101195.28;4232030;28;19954;-67
2023/12/22 10:10:22;;;;;;;;;;;;;;;16.43;48.99;101193.47;4230743;28;19927;-67
2023/12/22 10:12:25;;;;;;;;;;;;;;;16.44;48.98;101194.34;4232312;28;19927;-67
2023/12/22 10:14:27;;;;;;;;;;;;;;;16.44;48.75;101204.97;4232190;28;19920;-66
2023/12/22 10:16:29;;;;;;;;;;;;;;;16.43;48.92;101193.47;4232017;28;19923;-67
2023/12/22 10:18:31;;;;;;;;;;;;;;;16.43;48.96;101204.09;4232246;28;19923;-66
2023/12/22 10:20:32;;;;;;;;;;;;;;;16.44;48.48;101202.31;4231674;27;19920;-67
2023/12/22 10:22:34;;;;;;;;;;;;;;;16.45;48.83;101204.00;4232143;28;19944;-66
2023/12/22 10:24:43;;;;;;;;;;;;;;;16.45;48.80;101196.03;4231382;28;19924;-67
2023/12/22 10:26:46;;;;;;;;;;;;;;;16.44;48.52;101197.00;4229933;28;19919;-65
2023/12/22 10:28:48;;;;;;;;;;;;;;;16.44;48.41;101189.03;4231891;28;19919;-67